Time;durP1;ratioP1;P1;durP2;ratioP2;P2;SDS_P1;SDS_P2;PMS_P1;PMS_P2;Temp;Humidity;BMP_temperature;BMP_pressure;BME280_temperature;BME280_humidity;BME280_pressure;Samples;Min_cycle;Max_cycle;Signal;HPM_P1;HPM_P2
2021/03/10 00:02:03;;;;;;;10.57;5.93;;;7.00;99.90;;;;;;5043251;28;20265;-75
2021/03/10 00:04:31;;;;;;;8.27;5.30;;;7.20;99.90;;;;;;5048037;28;20199;-76
2021/03/10 00:06:59;;;;;;;6.60;5.27;;;7.10;99.90;;;;;;5042973;28;20562;-75
2021/03/10 00:09:25;;;;;;;9.00;5.80;;;7.10;99.90;;;;;;5048804;28;20262;-75
2021/03/10 00:11:52;;;;;;;7.20;5.77;;;7.10;99.90;;;;;;5062915;28;20671;-75
2021/03/10 00:14:18;;;;;;;9.47;5.53;;;7.20;99.90;;;;;;5050934;28;20199;-75
2021/03/10 00:16:44;;;;;;;7.57;5.33;;;6.90;99.90;;;;;;5045547;28;20303;-75
2021/03/10 00:19:11;;;;;;;5.70;5.00;;;6.50;99.90;;;;;;5045215;28;20241;-75
2021/03/10 00:21:37;;;;;;;8.43;5.90;;;6.40;99.90;;;;;;5056045;28;20640;-75
2021/03/10 00:24:04;;;;;;;8.80;6.10;;;6.80;99.90;;;;;;5059871;28;20217;-75
2021/03/10 00:26:30;;;;;;;7.50;5.33;;;6.80;99.90;;;;;;5044270;28;20218;-75
2021/03/10 00:28:57;;;;;;;7.47;4.67;;;6.70;99.90;;;;;;5047530;28;20203;-75
2021/03/10 00:31:23;;;;;;;7.53;4.83;;;6.60;99.90;;;;;;5046352;28;20210;-75
2021/03/10 00:33:49;;;;;;;8.10;5.33;;;6.70;99.90;;;;;;5063221;28;20208;-75
2021/03/10 00:36:16;;;;;;;6.73;5.50;;;6.70;99.90;;;;;;5046665;28;20226;-75
2021/03/10 00:38:42;;;;;;;7.87;5.40;;;6.50;99.90;;;;;;5048140;28;20306;-75
2021/03/10 00:41:08;;;;;;;7.77;5.83;;;6.70;99.90;;;;;;5048118;28;20196;-75
2021/03/10 00:43:35;;;;;;;8.17;5.23;;;6.70;99.90;;;;;;5048068;28;20562;-74
2021/03/10 00:46:01;;;;;;;7.20;4.63;;;6.80;99.90;;;;;;5048312;28;20678;-75
2021/03/10 00:48:28;;;;;;;7.70;5.47;;;6.80;99.90;;;;;;5045316;28;20205;-75
2021/03/10 00:50:54;;;;;;;7.57;5.43;;;6.80;99.90;;;;;;5031815;28;20604;-75
2021/03/10 00:53:21;;;;;;;6.43;4.83;;;6.90;99.90;;;;;;5058228;28;20211;-74
2021/03/10 00:55:47;;;;;;;6.43;4.90;;;6.90;99.90;;;;;;5059503;28;20687;-74
2021/03/10 00:58:23;;;;;;;8.73;5.03;;;6.80;99.90;;;;;;5064886;28;20235;-74
2021/03/10 01:00:49;;;;;;;6.00;5.00;;;6.70;99.90;;;;;;5061922;28;20348;-75
2021/03/10 01:03:16;;;;;;;7.90;5.20;;;6.70;99.90;;;;;;5061360;28;20272;-74
2021/03/10 01:05:47;;;;;;;5.67;4.73;;;6.80;99.90;;;;;;5049021;28;20211;-74
2021/03/10 01:08:14;;;;;;;6.87;4.03;;;6.70;99.90;;;;;;5066708;28;20277;-75
2021/03/10 01:10:40;;;;;;;6.83;5.30;;;6.70;99.90;;;;;;5053443;28;20208;-75
2021/03/10 01:13:07;;;;;;;6.00;5.30;;;6.70;99.90;;;;;;5047776;28;22046;-74
2021/03/10 01:15:34;;;;;;;7.07;5.10;;;6.60;99.90;;;;;;5042998;28;20206;-74
2021/03/10 01:18:00;;;;;;;9.33;5.70;;;6.60;99.90;;;;;;5048213;28;20300;-75
2021/03/10 01:20:27;;;;;;;7.20;5.17;;;6.60;99.90;;;;;;5065066;28;20199;-75
2021/03/10 01:22:54;;;;;;;7.63;5.67;;;6.60;99.90;;;;;;5047858;28;20623;-75
2021/03/10 01:25:20;;;;;;;9.67;6.03;;;6.60;99.90;;;;;;5033011;28;20260;-75
2021/03/10 01:27:47;;;;;;;13.20;5.57;;;6.60;99.90;;;;;;5047989;28;20243;-75
2021/03/10 01:30:15;;;;;;;8.00;5.63;;;6.60;99.90;;;;;;5047853;28;20207;-75
2021/03/10 01:32:43;;;;;;;7.27;5.33;;;6.70;99.90;;;;;;5061555;28;20207;-75
2021/03/10 01:35:10;;;;;;;6.60;5.07;;;6.70;99.90;;;;;;5048691;28;20290;-75
2021/03/10 01:37:37;;;;;;;8.00;5.47;;;6.60;99.90;;;;;;5048083;28;20292;-75
2021/03/10 01:40:10;;;;;;;8.30;4.70;;;6.60;99.90;;;;;;5053768;28;20197;-76
2021/03/10 01:42:36;;;;;;;8.27;5.87;;;6.60;99.90;;;;;;5059309;28;20211;-75
2021/03/10 01:45:08;;;;;;;6.20;4.77;;;6.60;99.90;;;;;;5049440;28;20196;-76
2021/03/10 01:47:35;;;;;;;7.33;5.30;;;6.60;99.90;;;;;;5041313;28;20227;-75
2021/03/10 01:50:03;;;;;;;8.70;6.07;;;6.60;99.90;;;;;;5046488;28;20593;-75
2021/03/10 01:52:30;;;;;;;7.50;4.90;;;6.50;99.90;;;;;;5045280;28;20211;-76
2021/03/10 01:54:57;;;;;;;10.33;5.97;;;6.50;99.90;;;;;;5051116;28;20205;-75
2021/03/10 01:57:23;;;;;;;8.37;5.70;;;6.50;99.90;;;;;;5053892;28;20235;-75
2021/03/10 01:59:49;;;;;;;7.80;5.50;;;6.50;99.90;;;;;;5056324;28;20214;-75
2021/03/10 02:02:16;;;;;;;10.10;6.10;;;6.50;99.90;;;;;;5039913;28;20689;-75
2021/03/10 02:04:43;;;;;;;9.53;5.93;;;6.50;99.90;;;;;;5052834;28;20278;-75
2021/03/10 02:07:21;;;;;;;8.10;5.97;;;6.50;99.90;;;;;;5060078;28;20276;-75
2021/03/10 02:10:18;;;;;;;6.87;5.17;;;6.60;99.90;;;;;;5059121;28;20341;-75
2021/03/10 02:13:03;;;;;;;7.83;5.00;;;6.70;99.90;;;;;;5047092;28;20320;-75
2021/03/10 02:15:39;;;;;;;7.97;5.43;;;6.70;99.90;;;;;;5059094;28;20223;-75
2021/03/10 02:18:11;;;;;;;12.93;6.37;;;6.30;99.90;;;;;;5061840;28;20227;-75
2021/03/10 02:20:52;;;;;;;7.30;5.27;;;6.50;99.90;;;;;;5043028;28;20358;-76
2021/03/10 02:23:30;;;;;;;7.90;5.10;;;6.50;99.90;;;;;;5045232;28;20228;-76
2021/03/10 02:26:22;;;;;;;10.07;5.60;;;6.40;99.90;;;;;;5059389;28;20269;-75
2021/03/10 02:28:51;;;;;;;8.17;5.53;;;6.50;99.90;;;;;;5060119;28;20209;-75
2021/03/10 02:31:18;;;;;;;8.23;6.07;;;6.60;99.90;;;;;;5043236;28;20348;-75
2021/03/10 02:33:45;;;;;;;10.43;6.00;;;6.70;99.90;;;;;;5059974;28;20200;-75
2021/03/10 02:36:13;;;;;;;7.17;5.80;;;6.60;99.90;;;;;;5052747;28;20968;-76
2021/03/10 02:38:47;;;;;;;10.60;6.67;;;6.40;99.90;;;;;;5042480;28;20285;-76
2021/03/10 02:41:14;;;;;;;10.30;5.93;;;6.40;99.90;;;;;;5042670;28;20237;-75
2021/03/10 02:43:43;;;;;;;10.47;5.40;;;6.50;99.90;;;;;;5065149;28;20279;-75
2021/03/10 02:46:09;;;;;;;9.57;5.97;;;6.40;99.90;;;;;;5063459;28;20265;-75
2021/03/10 02:48:37;;;;;;;9.93;6.23;;;6.20;99.90;;;;;;5063428;28;20212;-75
2021/03/10 02:51:06;;;;;;;8.40;5.90;;;6.40;99.90;;;;;;5047101;28;20249;-75
2021/03/10 02:53:33;;;;;;;12.03;6.40;;;6.60;99.90;;;;;;5052536;28;20702;-75
2021/03/10 02:56:00;;;;;;;8.90;6.17;;;6.40;99.90;;;;;;5056029;28;20236;-76
2021/03/10 02:58:27;;;;;;;11.03;6.37;;;6.30;99.90;;;;;;5046244;28;20206;-75
2021/03/10 03:00:53;;;;;;;7.20;5.00;;;6.50;99.90;;;;;;5057560;28;20224;-75
2021/03/10 03:03:20;;;;;;;7.90;5.23;;;6.50;99.90;;;;;;5046633;28;20247;-75
2021/03/10 03:05:46;;;;;;;10.80;6.40;;;6.50;99.90;;;;;;5048753;28;20241;-75
2021/03/10 03:08:14;;;;;;;8.40;5.37;;;6.50;99.90;;;;;;5039300;28;21043;-75
2021/03/10 03:10:42;;;;;;;7.50;5.17;;;6.50;99.90;;;;;;5048552;28;20252;-75
2021/03/10 03:13:13;;;;;;;8.63;5.97;;;6.50;99.90;;;;;;5060059;28;20200;-75
2021/03/10 03:15:41;;;;;;;12.87;5.83;;;6.50;99.90;;;;;;5042073;28;20223;-76
2021/03/10 03:18:07;;;;;;;8.93;5.67;;;6.50;99.90;;;;;;5049000;28;20236;-75
2021/03/10 03:20:34;;;;;;;10.83;7.07;;;6.50;99.90;;;;;;5049030;28;20192;-76
2021/03/10 03:23:04;;;;;;;9.93;6.00;;;6.60;99.90;;;;;;5061161;28;20192;-76
2021/03/10 03:25:34;;;;;;;10.47;6.33;;;6.60;99.90;;;;;;5070000;28;20603;-75
2021/03/10 03:28:04;;;;;;;11.17;6.70;;;6.60;99.90;;;;;;5061358;28;20200;-75
2021/03/10 03:30:33;;;;;;;11.00;6.43;;;6.50;99.90;;;;;;5048234;28;20602;-75
2021/03/10 03:33:05;;;;;;;10.73;6.77;;;6.50;99.90;;;;;;5066419;28;20212;-75
2021/03/10 03:35:32;;;;;;;9.50;6.87;;;6.40;99.90;;;;;;5063730;28;20278;-75
2021/03/10 03:37:59;;;;;;;13.00;6.97;;;6.40;99.90;;;;;;5064505;28;20227;-75
2021/03/10 03:40:26;;;;;;;8.33;5.87;;;6.50;99.90;;;;;;5049470;28;20203;-75
2021/03/10 03:42:53;;;;;;;11.17;6.97;;;6.50;99.90;;;;;;5065514;28;20682;-75
2021/03/10 03:45:21;;;;;;;9.30;6.50;;;6.50;99.90;;;;;;5062153;28;20196;-75
2021/03/10 03:47:53;;;;;;;10.23;6.37;;;6.40;99.90;;;;;;5043834;28;20204;-75
2021/03/10 03:50:21;;;;;;;11.33;7.20;;;6.40;99.90;;;;;;5068515;28;20268;-74
2021/03/10 03:52:48;;;;;;;10.77;7.33;;;6.40;99.90;;;;;;5047859;28;20276;-75
2021/03/10 03:55:15;;;;;;;11.37;7.13;;;6.40;99.90;;;;;;5042261;28;20682;-75
2021/03/10 03:57:41;;;;;;;14.40;8.27;;;6.40;99.90;;;;;;5060661;28;20293;-74
2021/03/10 04:00:10;;;;;;;13.53;8.30;;;6.50;99.90;;;;;;5062487;28;20215;-74
2021/03/10 04:02:37;;;;;;;14.40;7.57;;;6.40;99.90;;;;;;5048568;28;20227;-75
2021/03/10 04:05:05;;;;;;;14.93;7.33;;;6.50;99.90;;;;;;5057081;28;20196;-74
2021/03/10 04:07:32;;;;;;;16.30;7.93;;;6.40;99.90;;;;;;5058377;28;20264;-74
2021/03/10 04:09:59;;;;;;;13.00;7.77;;;6.40;99.90;;;;;;5049898;28;20708;-74
2021/03/10 04:12:25;;;;;;;13.13;7.77;;;6.30;99.90;;;;;;5067078;28;20282;-75
2021/03/10 04:14:52;;;;;;;16.00;8.50;;;6.10;99.90;;;;;;5060878;28;20200;-75
2021/03/10 04:17:19;;;;;;;12.63;7.93;;;6.10;99.90;;;;;;5065925;28;21923;-75
2021/03/10 04:19:45;;;;;;;14.87;8.67;;;6.00;99.90;;;;;;5034312;28;20525;-75
2021/03/10 04:22:12;;;;;;;15.47;8.90;;;5.80;99.90;;;;;;5039711;28;20613;-75
2021/03/10 04:24:38;;;;;;;13.70;8.77;;;5.70;99.90;;;;;;5061270;28;20199;-75
2021/03/10 04:27:05;;;;;;;15.60;8.40;;;5.70;99.90;;;;;;5065145;28;20219;-74
2021/03/10 04:29:33;;;;;;;13.70;8.57;;;5.80;99.90;;;;;;5051532;28;20225;-75
2021/03/10 04:31:59;;;;;;;15.20;8.80;;;5.80;99.90;;;;;;5064061;28;20202;-75
2021/03/10 04:34:26;;;;;;;13.73;8.50;;;5.50;99.90;;;;;;5044497;28;20203;-75
2021/03/10 04:36:52;;;;;;;16.37;9.50;;;5.40;99.90;;;;;;5031960;28;20196;-75
2021/03/10 04:39:18;;;;;;;17.03;9.97;;;5.50;99.90;;;;;;5059064;28;21134;-75
2021/03/10 04:41:45;;;;;;;16.37;9.47;;;5.50;99.90;;;;;;5059287;28;20541;-74
2021/03/10 04:44:11;;;;;;;16.87;9.93;;;5.60;99.90;;;;;;5049034;28;20204;-75
2021/03/10 04:46:38;;;;;;;19.70;9.97;;;5.50;99.90;;;;;;5060533;28;20739;-74
2021/03/10 04:49:08;;;;;;;17.87;10.07;;;5.50;99.90;;;;;;5034692;28;20225;-75
2021/03/10 04:51:35;;;;;;;17.27;9.63;;;5.70;99.90;;;;;;5048319;28;20592;-75
2021/03/10 04:54:02;;;;;;;20.57;10.83;;;5.40;99.90;;;;;;5068344;28;20301;-75
2021/03/10 04:56:28;;;;;;;25.67;12.23;;;5.40;99.90;;;;;;5030522;28;20207;-74
2021/03/10 04:58:54;;;;;;;21.57;11.20;;;5.40;99.90;;;;;;5047979;28;20237;-75
2021/03/10 05:01:21;;;;;;;19.40;11.13;;;5.20;99.90;;;;;;5046903;28;20286;-74
2021/03/10 05:03:47;;;;;;;19.70;12.03;;;5.30;99.90;;;;;;5043382;28;20204;-75
2021/03/10 05:06:14;;;;;;;27.87;14.10;;;5.40;99.90;;;;;;5061824;28;20196;-75
2021/03/10 05:08:51;;;;;;;26.10;13.13;;;5.20;99.90;;;;;;5025419;28;20326;-75
2021/03/10 05:11:17;;;;;;;23.23;12.97;;;5.00;99.90;;;;;;5030900;28;20679;-75
2021/03/10 05:13:44;;;;;;;20.90;13.37;;;5.20;99.90;;;;;;5044836;28;20212;-76
2021/03/10 05:16:10;;;;;;;23.10;12.93;;;5.00;99.90;;;;;;5045695;28;20278;-76
2021/03/10 05:18:37;;;;;;;23.50;13.20;;;5.00;99.90;;;;;;5044663;28;20273;-75
2021/03/10 05:21:05;;;;;;;26.53;13.70;;;5.00;99.90;;;;;;5062090;28;20840;-74
2021/03/10 05:23:31;;;;;;;25.97;14.13;;;5.20;99.90;;;;;;5060954;28;20303;-75
2021/03/10 05:25:57;;;;;;;27.50;15.67;;;5.40;99.90;;;;;;5061278;28;20255;-75
2021/03/10 05:28:24;;;;;;;28.90;15.30;;;5.50;99.90;;;;;;5030856;28;20200;-75
2021/03/10 05:30:50;;;;;;;27.17;15.70;;;5.20;99.90;;;;;;5044560;28;21198;-75
2021/03/10 05:33:17;;;;;;;32.77;14.97;;;5.40;99.90;;;;;;5056096;28;20287;-75
2021/03/10 05:35:43;;;;;;;32.80;16.23;;;5.50;99.90;;;;;;5048226;28;20207;-75
2021/03/10 05:38:09;;;;;;;31.93;17.07;;;5.50;99.90;;;;;;5046363;28;20904;-75
2021/03/10 05:40:36;;;;;;;29.00;16.47;;;5.30;99.90;;;;;;5030987;28;20204;-75
2021/03/10 05:43:03;;;;;;;27.77;15.63;;;5.30;99.90;;;;;;5044160;28;20762;-75
2021/03/10 05:45:30;;;;;;;32.03;16.20;;;5.40;99.90;;;;;;5031489;28;20304;-74
2021/03/10 05:47:56;;;;;;;28.83;17.10;;;5.30;99.90;;;;;;5058770;28;20214;-75
2021/03/10 05:50:23;;;;;;;30.10;16.50;;;5.20;99.90;;;;;;5048552;28;20245;-75
2021/03/10 05:52:49;;;;;;;35.87;17.23;;;5.10;99.90;;;;;;5059016;28;20356;-75
2021/03/10 05:55:17;;;;;;;33.03;17.23;;;5.00;99.90;;;;;;5031800;28;20271;-75
2021/03/10 05:57:45;;;;;;;33.73;17.93;;;5.10;99.90;;;;;;5062455;28;20235;-74
2021/03/10 06:00:13;;;;;;;31.67;18.20;;;5.10;99.90;;;;;;5042962;28;20388;-74
2021/03/10 06:02:40;;;;;;;37.97;18.80;;;5.10;99.90;;;;;;5052583;28;20192;-75
2021/03/10 06:05:24;;;;;;;33.03;18.77;;;5.20;99.90;;;;;;5028312;28;20199;-75
2021/03/10 06:08:05;;;;;;;38.97;18.70;;;5.10;99.90;;;;;;5047553;28;20210;-75
2021/03/10 06:10:43;;;;;;;34.87;18.13;;;5.00;99.90;;;;;;5042625;28;20218;-75
2021/03/10 06:13:25;;;;;;;31.90;17.23;;;5.00;99.90;;;;;;5041708;28;20297;-75
2021/03/10 06:15:56;;;;;;;34.80;18.07;;;4.90;99.90;;;;;;5044132;28;20280;-75
2021/03/10 06:18:30;;;;;;;37.53;18.63;;;4.90;99.90;;;;;;5061955;28;20278;-75
2021/03/10 06:21:11;;;;;;;37.60;19.87;;;4.80;99.90;;;;;;5073374;28;20198;-75
2021/03/10 06:23:53;;;;;;;36.63;18.30;;;4.80;99.90;;;;;;5045986;28;20229;-75
2021/03/10 06:26:21;;;;;;;39.00;18.90;;;5.00;99.90;;;;;;5050765;28;20202;-75
2021/03/10 06:28:48;;;;;;;39.53;19.13;;;4.80;99.90;;;;;;5053012;28;20203;-75
2021/03/10 06:31:22;;;;;;;37.63;19.30;;;4.70;99.90;;;;;;5048749;28;20238;-74
2021/03/10 06:34:17;;;;;;;30.23;18.50;;;4.80;99.90;;;;;;5050680;28;20237;-75
2021/03/10 06:36:48;;;;;;;33.60;18.47;;;4.80;99.90;;;;;;5034567;28;20214;-75
2021/03/10 06:39:27;;;;;;;34.57;19.67;;;4.80;99.90;;;;;;5050488;28;20274;-75
2021/03/10 06:41:53;;;;;;;39.20;19.70;;;4.80;99.90;;;;;;5067987;28;20204;-75
2021/03/10 06:44:22;;;;;;;35.70;19.00;;;4.90;99.90;;;;;;5059001;28;20273;-75
2021/03/10 06:47:07;;;;;;;41.90;20.97;;;5.00;99.90;;;;;;5054266;28;20203;-74
2021/03/10 06:49:34;;;;;;;36.17;19.73;;;5.00;99.90;;;;;;5062744;28;20203;-75
2021/03/10 06:52:09;;;;;;;32.40;18.10;;;5.00;99.90;;;;;;5049229;28;20650;-75
2021/03/10 06:54:35;;;;;;;32.13;19.33;;;5.00;99.90;;;;;;5048798;28;20663;-78
2021/03/10 06:57:05;;;;;;;39.83;19.57;;;5.20;99.90;;;;;;5034437;28;20294;-76
2021/03/10 06:59:51;;;;;;;31.37;18.60;;;5.10;99.90;;;;;;5064772;28;20268;-77
2021/03/10 07:02:23;;;;;;;32.43;18.13;;;5.10;99.90;;;;;;5062480;28;20199;-76
2021/03/10 07:04:57;;;;;;;35.53;19.53;;;5.10;99.90;;;;;;5051242;28;20248;-76
2021/03/10 07:07:25;;;;;;;33.10;20.23;;;5.10;99.90;;;;;;5046928;28;20275;-75
2021/03/10 07:09:52;;;;;;;33.83;18.83;;;5.20;99.90;;;;;;5059413;28;20619;-75
2021/03/10 07:12:21;;;;;;;34.97;19.30;;;5.10;99.90;;;;;;5060451;28;20217;-75
2021/03/10 07:14:48;;;;;;;31.67;18.77;;;5.20;99.90;;;;;;5050910;28;20256;-75
2021/03/10 07:17:18;;;;;;;36.50;19.67;;;5.00;99.90;;;;;;5044600;28;20682;-76
2021/03/10 07:19:45;;;;;;;38.80;19.47;;;5.00;99.90;;;;;;5046222;28;20233;-77
2021/03/10 07:22:19;;;;;;;34.00;19.10;;;5.10;99.90;;;;;;5054541;28;20265;-76
2021/03/10 07:25:06;;;;;;;32.40;18.33;;;5.10;99.90;;;;;;5045254;28;20210;-75
2021/03/10 07:27:50;;;;;;;31.80;18.30;;;5.30;99.90;;;;;;5050131;28;20242;-79
2021/03/10 07:30:16;;;;;;;31.03;18.00;;;5.10;99.90;;;;;;5066460;28;20202;-77
2021/03/10 07:32:43;;;;;;;34.60;18.70;;;5.00;99.90;;;;;;5036690;28;20229;-78
2021/03/10 07:35:12;;;;;;;31.97;18.70;;;5.10;99.90;;;;;;5025888;28;20237;-77
2021/03/10 07:37:51;;;;;;;37.33;19.07;;;5.00;99.90;;;;;;5062376;28;20207;-77
2021/03/10 07:40:19;;;;;;;30.20;18.53;;;5.10;99.90;;;;;;5047153;28;20206;-76
2021/03/10 07:42:57;;;;;;;32.50;17.27;;;5.20;99.90;;;;;;5068732;28;20201;-77
2021/03/10 07:45:26;;;;;;;43.00;19.83;;;5.10;99.90;;;;;;5046578;28;20276;-78
2021/03/10 07:47:55;;;;;;;34.37;18.60;;;5.10;99.90;;;;;;5045946;28;20253;-77
2021/03/10 07:50:42;;;;;;;33.57;18.30;;;5.30;99.90;;;;;;5061164;28;20294;-78
2021/03/10 07:53:09;;;;;;;33.00;18.10;;;5.30;99.90;;;;;;5048996;28;20241;-77
2021/03/10 07:55:42;;;;;;;30.00;17.67;;;5.30;99.90;;;;;;5058451;28;20303;-78
2021/03/10 07:58:09;;;;;;;33.57;17.90;;;5.20;99.90;;;;;;5048550;28;20292;-78
2021/03/10 08:00:37;;;;;;;29.60;18.60;;;5.30;99.90;;;;;;5049498;28;20203;-79
2021/03/10 08:03:04;;;;;;;33.40;18.20;;;5.30;99.90;;;;;;5050585;28;20283;-77
2021/03/10 08:05:32;;;;;;;34.67;17.33;;;5.50;99.90;;;;;;5044666;28;20207;-77
2021/03/10 08:08:10;;;;;;;36.00;18.07;;;5.40;99.90;;;;;;5050255;28;20257;-82
2021/03/10 08:10:38;;;;;;;30.90;16.67;;;5.20;99.90;;;;;;5067154;28;20998;-79
2021/03/10 08:13:19;;;;;;;30.77;16.60;;;5.20;99.90;;;;;;5050895;28;20211;-81
2021/03/10 08:15:46;;;;;;;30.00;16.90;;;5.20;99.90;;;;;;5044188;28;21072;-79
2021/03/10 08:18:13;;;;;;;29.50;17.67;;;5.20;99.90;;;;;;5034518;28;21687;-79
2021/03/10 08:20:40;;;;;;;34.37;18.50;;;5.30;99.90;;;;;;5008874;28;20251;-79
2021/03/10 08:23:07;;;;;;;29.97;16.77;;;5.40;99.90;;;;;;5050700;28;20192;-77
2021/03/10 08:25:34;;;;;;;31.57;18.07;;;5.30;99.90;;;;;;5042609;28;20204;-79
2021/03/10 08:28:12;;;;;;;33.07;17.13;;;5.30;99.90;;;;;;5025099;28;20273;-79
2021/03/10 08:30:39;;;;;;;31.63;16.77;;;5.60;99.90;;;;;;5025096;28;20214;-82
2021/03/10 08:33:06;;;;;;;33.73;17.77;;;5.50;99.90;;;;;;5049959;28;20195;-79
2021/03/10 08:35:34;;;;;;;34.43;17.57;;;5.50;99.90;;;;;;5012392;28;20558;-81
2021/03/10 08:38:03;;;;;;;31.20;15.93;;;5.70;99.90;;;;;;5028648;28;20310;-80
2021/03/10 08:40:31;;;;;;;30.87;17.33;;;5.70;99.90;;;;;;5029054;28;20200;-80
2021/03/10 08:42:59;;;;;;;35.53;18.67;;;5.70;99.90;;;;;;5035113;28;20345;-75
2021/03/10 08:45:35;;;;;;;36.43;19.33;;;5.80;99.90;;;;;;5024778;28;20200;-74
2021/03/10 08:48:01;;;;;;;27.23;16.30;;;6.00;99.90;;;;;;5035866;28;20292;-74
2021/03/10 08:50:35;;;;;;;28.93;16.53;;;6.00;99.90;;;;;;5038359;28;20214;-74
2021/03/10 08:53:04;;;;;;;27.73;16.03;;;6.00;99.90;;;;;;5040046;28;20241;-75
2021/03/10 08:55:31;;;;;;;30.60;16.97;;;6.10;99.90;;;;;;5022330;28;20298;-74
2021/03/10 08:57:59;;;;;;;32.07;17.03;;;6.00;99.90;;;;;;5038755;28;20562;-75
2021/03/10 09:00:27;;;;;;;32.20;16.27;;;6.10;99.90;;;;;;5027312;28;20204;-74
2021/03/10 09:02:54;;;;;;;31.80;18.07;;;6.10;99.90;;;;;;5022958;28;20196;-75
2021/03/10 09:05:27;;;;;;;32.03;17.93;;;6.10;99.90;;;;;;5022687;28;20226;-75
2021/03/10 09:07:54;;;;;;;27.10;15.83;;;6.30;99.90;;;;;;5040330;28;20279;-74
2021/03/10 09:10:22;;;;;;;34.00;18.20;;;6.30;99.90;;;;;;5016316;28;20201;-75
2021/03/10 09:12:51;;;;;;;32.80;16.57;;;6.40;99.90;;;;;;5024534;28;20727;-75
2021/03/10 09:15:20;;;;;;;36.13;19.00;;;6.60;99.90;;;;;;5025438;28;20725;-74
2021/03/10 09:17:47;;;;;;;30.37;17.07;;;6.50;99.90;;;;;;5033458;28;20513;-74
2021/03/10 09:20:27;;;;;;;29.57;17.00;;;6.50;99.90;;;;;;5052453;28;20239;-74
2021/03/10 09:22:55;;;;;;;25.43;15.50;;;6.50;99.90;;;;;;5039445;28;20242;-75
2021/03/10 09:25:26;;;;;;;27.60;14.33;;;6.40;99.90;;;;;;5056696;28;20676;-74
2021/03/10 09:28:03;;;;;;;30.83;16.57;;;6.40;99.90;;;;;;5053981;28;20835;-75
2021/03/10 09:30:32;;;;;;;34.30;16.33;;;6.50;99.90;;;;;;5040536;28;20199;-74
2021/03/10 09:32:59;;;;;;;26.00;15.13;;;6.50;99.90;;;;;;5051743;28;20212;-73
2021/03/10 09:35:32;;;;;;;34.33;16.63;;;6.60;99.90;;;;;;5036764;28;20203;-74
2021/03/10 09:38:07;;;;;;;31.77;17.50;;;6.60;99.90;;;;;;5052694;28;20230;-74
2021/03/10 09:40:39;;;;;;;29.37;16.07;;;6.60;99.90;;;;;;5053337;28;20199;-74
2021/03/10 09:43:08;;;;;;;22.87;14.20;;;6.70;99.90;;;;;;5042609;28;20213;-74
2021/03/10 09:45:37;;;;;;;30.00;16.60;;;6.50;99.90;;;;;;5042809;28;20260;-74
2021/03/10 09:48:06;;;;;;;29.40;15.20;;;6.60;99.90;;;;;;5042486;28;20204;-74
2021/03/10 09:50:38;;;;;;;26.30;14.27;;;6.70;99.90;;;;;;5055926;28;20676;-73
2021/03/10 09:53:19;;;;;;;32.57;16.57;;;6.70;99.90;;;;;;5043662;28;20226;-75
2021/03/10 09:55:46;;;;;;;21.97;14.00;;;6.80;99.90;;;;;;5055883;28;20257;-71
2021/03/10 09:58:15;;;;;;;26.80;15.63;;;6.80;99.90;;;;;;5039524;28;20251;-73
2021/03/10 10:00:44;;;;;;;27.67;15.77;;;6.90;99.90;;;;;;5045299;28;20203;-73
2021/03/10 10:03:11;;;;;;;24.40;14.50;;;6.90;99.90;;;;;;5058123;28;20291;-75
2021/03/10 10:05:39;;;;;;;25.57;14.70;;;7.00;99.90;;;;;;5041126;28;20195;-74
2021/03/10 10:08:08;;;;;;;24.23;14.10;;;7.00;99.90;;;;;;5042753;28;20200;-74
2021/03/10 10:10:36;;;;;;;27.73;14.87;;;7.10;99.90;;;;;;5041551;28;20537;-74
2021/03/10 10:13:04;;;;;;;25.83;13.57;;;7.20;99.90;;;;;;5040086;28;20656;-75
2021/03/10 10:15:33;;;;;;;27.80;13.67;;;7.20;99.90;;;;;;5056929;28;20290;-73
2021/03/10 10:18:03;;;;;;;21.67;11.73;;;7.20;99.90;;;;;;5056876;28;20658;-75
2021/03/10 10:20:33;;;;;;;27.10;13.63;;;7.40;99.90;;;;;;5059487;28;20214;-75
2021/03/10 10:23:02;;;;;;;28.07;12.47;;;7.50;99.90;;;;;;5061329;28;20212;-74
2021/03/10 10:25:32;;;;;;;23.57;13.70;;;7.50;99.90;;;;;;5056301;28;20699;-74
2021/03/10 10:27:59;;;;;;;19.97;12.30;;;7.70;99.90;;;;;;5055980;28;20279;-75
2021/03/10 10:30:25;;;;;;;20.53;13.07;;;7.80;99.90;;;;;;5037346;28;20260;-74
2021/03/10 10:32:52;;;;;;;21.27;12.17;;;7.80;99.90;;;;;;5040926;28;20645;-75
2021/03/10 10:35:19;;;;;;;20.90;11.97;;;7.90;99.90;;;;;;5044122;28;20196;-74
2021/03/10 10:37:46;;;;;;;18.77;11.43;;;7.90;99.90;;;;;;5056468;28;20211;-74
2021/03/10 10:40:17;;;;;;;20.37;11.10;;;8.00;99.90;;;;;;5037666;28;20623;-75
2021/03/10 10:42:48;;;;;;;19.53;11.87;;;8.10;99.90;;;;;;5058257;28;20199;-75
2021/03/10 10:45:16;;;;;;;22.63;11.17;;;8.00;99.90;;;;;;5058653;28;20214;-75
2021/03/10 10:47:43;;;;;;;16.53;10.60;;;8.10;99.90;;;;;;5048645;28;20213;-75
2021/03/10 10:50:11;;;;;;;25.33;9.63;;;8.20;99.90;;;;;;5060785;28;20200;-76
2021/03/10 10:52:39;;;;;;;16.53;10.27;;;8.20;99.90;;;;;;5048213;28;20196;-75
2021/03/10 10:55:07;;;;;;;18.90;9.00;;;8.20;99.90;;;;;;5043318;28;20208;-75
2021/03/10 10:57:33;;;;;;;18.97;10.63;;;8.20;99.90;;;;;;5053342;28;20204;-74
2021/03/10 11:00:25;;;;;;;19.73;9.97;;;8.20;99.90;;;;;;5039396;28;20698;-75
2021/03/10 11:02:52;;;;;;;15.90;9.13;;;8.20;99.90;;;;;;5024226;28;20204;-75
2021/03/10 11:05:18;;;;;;;15.87;9.07;;;8.20;99.90;;;;;;5051956;28;20207;-75
2021/03/10 11:07:45;;;;;;;14.93;9.20;;;8.10;99.90;;;;;;5064793;28;20203;-75
2021/03/10 11:10:11;;;;;;;22.83;9.13;;;8.10;99.90;;;;;;5029622;28;20299;-75
2021/03/10 11:12:39;;;;;;;20.83;10.00;;;8.20;99.90;;;;;;5029388;28;20214;-75
2021/03/10 11:15:07;;;;;;;16.40;9.20;;;8.30;99.90;;;;;;5058758;28;20512;-75
2021/03/10 11:17:35;;;;;;;14.60;8.97;;;8.30;99.90;;;;;;5040400;28;20287;-75
2021/03/10 11:20:06;;;;;;;18.70;9.77;;;8.30;99.90;;;;;;5045370;28;20247;-75
2021/03/10 11:22:33;;;;;;;17.97;9.87;;;8.40;99.90;;;;;;5061467;28;20212;-76
2021/03/10 11:25:00;;;;;;;16.13;9.30;;;8.40;99.90;;;;;;5046184;28;20296;-75
2021/03/10 11:27:26;;;;;;;15.87;9.40;;;8.40;99.90;;;;;;5040004;28;20256;-74
2021/03/10 11:29:52;;;;;;;15.57;9.33;;;8.60;99.90;;;;;;5060158;28;20202;-75
2021/03/10 11:32:19;;;;;;;15.70;8.40;;;8.50;99.90;;;;;;5044491;28;20237;-75
2021/03/10 11:34:46;;;;;;;16.73;10.87;;;8.50;99.90;;;;;;5057731;28;20279;-74
2021/03/10 11:37:14;;;;;;;17.93;10.10;;;8.50;99.90;;;;;;5058181;28;20235;-75
2021/03/10 11:39:41;;;;;;;13.90;8.83;;;8.60;99.90;;;;;;5050398;28;20225;-75
2021/03/10 11:42:07;;;;;;;15.23;9.23;;;8.60;99.90;;;;;;5062749;28;20247;-74
2021/03/10 11:44:34;;;;;;;14.23;8.07;;;8.70;99.90;;;;;;5040159;28;22424;-75
2021/03/10 11:47:01;;;;;;;16.13;9.33;;;8.70;99.90;;;;;;5044978;28;20238;-75
2021/03/10 11:49:27;;;;;;;15.63;9.03;;;8.80;99.90;;;;;;5060784;28;20217;-75
2021/03/10 11:51:54;;;;;;;15.43;9.17;;;8.90;99.90;;;;;;5046687;28;20199;-75
2021/03/10 11:54:22;;;;;;;19.53;10.33;;;8.90;99.90;;;;;;5062564;28;20219;-75
2021/03/10 11:56:49;;;;;;;15.87;10.00;;;9.00;99.90;;;;;;5046426;28;20217;-75
2021/03/10 11:59:15;;;;;;;16.80;9.67;;;9.20;99.90;;;;;;5053711;28;20311;-75
2021/03/10 12:01:43;;;;;;;21.53;10.33;;;9.20;99.90;;;;;;5057126;28;20196;-75
2021/03/10 12:04:09;;;;;;;15.80;9.30;;;9.30;99.90;;;;;;5057169;28;20227;-73
2021/03/10 12:06:36;;;;;;;17.30;10.77;;;9.50;99.90;;;;;;5057619;28;20206;-76
2021/03/10 12:09:04;;;;;;;16.67;10.27;;;9.50;99.90;;;;;;5058694;28;20206;-76
2021/03/10 12:11:34;;;;;;;14.53;9.60;;;9.50;99.90;;;;;;5040952;28;20301;-75
2021/03/10 12:14:18;;;;;;;14.77;9.93;;;9.50;99.90;;;;;;5056639;28;21208;-76
2021/03/10 12:16:44;;;;;;;15.03;9.97;;;9.70;99.90;;;;;;5059776;28;20411;-74
2021/03/10 12:19:10;;;;;;;15.50;9.87;;;9.50;99.90;;;;;;5023740;28;20292;-74
2021/03/10 12:21:37;;;;;;;15.93;9.93;;;9.60;99.90;;;;;;5060001;28;20216;-74
2021/03/10 12:24:04;;;;;;;14.53;8.93;;;9.70;99.90;;;;;;5045501;28;20206;-75
2021/03/10 12:26:30;;;;;;;12.97;8.63;;;9.80;99.90;;;;;;5057391;28;20228;-75
2021/03/10 12:28:57;;;;;;;13.37;8.77;;;9.90;99.90;;;;;;5028784;28;20824;-75
2021/03/10 12:31:23;;;;;;;20.20;9.83;;;9.80;99.90;;;;;;5056758;28;20317;-74
2021/03/10 12:33:50;;;;;;;17.47;9.47;;;9.70;99.90;;;;;;5034043;28;20295;-75
2021/03/10 12:36:16;;;;;;;11.87;7.60;;;9.70;99.90;;;;;;5025094;28;20206;-75
2021/03/10 12:38:42;;;;;;;13.00;7.33;;;9.80;99.90;;;;;;5044235;28;20322;-74
2021/03/10 12:41:09;;;;;;;15.80;8.50;;;9.80;99.90;;;;;;5061217;28;20605;-75
2021/03/10 12:43:35;;;;;;;14.93;9.67;;;9.80;99.90;;;;;;5057279;28;20222;-74
2021/03/10 12:46:03;;;;;;;18.97;10.33;;;9.90;99.90;;;;;;5059354;28;20196;-75
2021/03/10 12:48:29;;;;;;;13.30;8.40;;;9.90;99.90;;;;;;5026966;28;20651;-75
2021/03/10 12:50:56;;;;;;;12.83;8.20;;;10.00;99.90;;;;;;5060952;28;20201;-74
2021/03/10 12:53:23;;;;;;;16.93;9.70;;;10.00;99.90;;;;;;5051760;28;20518;-74